Time;durP1;ratioP1;P1;durP2;ratioP2;P2;SDS_P1;SDS_P2;PMS_P1;PMS_P2;Temp;Humidity;BMP_temperature;BMP_pressure;BME280_temperature;BME280_humidity;BME280_pressure;Samples;Min_cycle;Max_cycle;Signal;HPM_P1;HPM_P2
2022/06/26 00:01:27;;;;;;;3.22;2.50;;;;;;;19.21;100.00;100230.22;6149649;28;20039;-89
2022/06/26 00:04:28;;;;;;;2.97;2.30;;;;;;;19.25;100.00;100228.81;6136654;28;20055;-89
2022/06/26 00:07:30;;;;;;;3.47;2.53;;;;;;;19.26;100.00;100234.91;6129895;28;20051;-89
2022/06/26 00:10:33;;;;;;;3.13;2.30;;;;;;;19.27;100.00;100231.28;6132613;29;20047;-88
2022/06/26 00:13:35;;;;;;;2.75;2.28;;;;;;;19.24;100.00;100237.69;6132188;28;20386;-89
2022/06/26 00:16:37;;;;;;;2.35;2.15;;;;;;;19.25;100.00;100228.00;6130715;29;20438;-88
2022/06/26 00:19:39;;;;;;;2.78;2.58;;;;;;;19.24;100.00;100239.53;6126017;29;20612;-88
2022/06/26 00:22:41;;;;;;;3.20;2.55;;;;;;;19.22;100.00;100241.50;6127712;28;20050;-89
2022/06/26 00:25:43;;;;;;;3.58;2.67;;;;;;;19.22;100.00;100234.44;6132667;28;20058;-89
2022/06/26 00:28:45;;;;;;;2.90;2.70;;;;;;;19.25;100.00;100233.25;6137236;28;20038;-89
2022/06/26 00:31:47;;;;;;;2.65;2.45;;;;;;;19.20;100.00;100239.06;6127030;29;20051;-89
2022/06/26 00:34:49;;;;;;;3.60;2.30;;;;;;;19.17;100.00;100234.19;6110822;29;20058;-89
2022/06/26 00:37:51;;;;;;;2.28;2.05;;;;;;;19.12;100.00;100239.97;6137137;29;20432;-89
2022/06/26 00:40:53;;;;;;;4.22;2.10;;;;;;;19.10;100.00;100241.16;6137072;28;20039;-89
2022/06/26 00:43:54;;;;;;;2.60;2.40;;;;;;;19.13;100.00;100239.00;6132372;29;20759;-88
2022/06/26 00:46:56;;;;;;;2.30;2.10;;;;;;;19.14;100.00;100237.19;6134130;28;20079;-89
2022/06/26 00:49:59;;;;;;;2.47;2.28;;;;;;;19.14;100.00;100240.63;6136095;28;20054;-89
2022/06/26 00:53:01;;;;;;;4.20;2.15;;;;;;;19.14;100.00;100232.75;6136272;29;20051;-89
2022/06/26 00:56:03;;;;;;;2.70;2.50;;;;;;;19.15;100.00;100238.81;6120799;29;20051;-89
2022/06/26 00:59:06;;;;;;;4.72;2.63;;;;;;;19.14;100.00;100237.19;6127383;28;20164;-89
2022/06/26 01:02:08;;;;;;;3.05;2.35;;;;;;;19.12;100.00;100237.34;6127609;29;20047;-89
2022/06/26 01:05:10;;;;;;;4.18;2.50;;;;;;;19.10;100.00;100241.97;6128706;29;20054;-89
2022/06/26 01:08:12;;;;;;;2.58;2.38;;;;;;;19.05;100.00;100249.59;6136399;28;20504;-88
2022/06/26 01:11:23;;;;;;;2.55;2.35;;;;;;;18.98;100.00;100243.47;6129186;29;20040;-89
2022/06/26 01:14:26;;;;;;;2.10;2.00;;;;;;;18.91;100.00;100243.38;6130217;29;20127;-89
2022/06/26 01:17:28;;;;;;;2.38;2.17;;;;;;;18.86;100.00;100250.16;6128846;29;20047;-89
2022/06/26 01:20:30;;;;;;;3.70;2.50;;;;;;;18.84;100.00;100246.91;6130720;28;20047;-89
2022/06/26 01:23:32;;;;;;;2.67;2.40;;;;;;;18.82;100.00;100247.09;6125062;28;20067;-89
2022/06/26 01:26:36;;;;;;;2.47;2.28;;;;;;;18.81;100.00;100248.09;6136331;28;20636;-89
2022/06/26 01:29:38;;;;;;;3.85;2.40;;;;;;;18.81;100.00;100249.91;6133908;28;20500;-89
2022/06/26 01:32:40;;;;;;;2.42;2.20;;;;;;;18.78;100.00;100245.84;6136751;29;20524;-89
2022/06/26 01:35:42;;;;;;;3.03;2.35;;;;;;;18.79;100.00;100241.41;6139466;29;20195;-89
2022/06/26 01:38:44;;;;;;;2.88;2.20;;;;;;;18.76;100.00;100250.44;6147981;28;20059;-88
2022/06/26 01:41:47;;;;;;;3.22;2.25;;;;;;;18.73;100.00;100251.59;6139712;29;20054;-89
2022/06/26 01:44:49;;;;;;;2.97;2.40;;;;;;;18.71;100.00;100250.94;6138326;29;20051;-89
2022/06/26 01:47:57;;;;;;;2.53;2.33;;;;;;;18.72;100.00;100257.81;6139022;29;20047;-89
2022/06/26 01:51:01;;;;;;;2.85;2.55;;;;;;;18.70;100.00;100245.88;6139050;28;20050;-89
2022/06/26 01:54:04;;;;;;;3.63;2.65;;;;;;;18.69;100.00;100245.06;6129899;28;20066;-89
2022/06/26 01:57:07;;;;;;;2.45;2.25;;;;;;;18.66;100.00;100253.31;6124856;29;20187;-89
2022/06/26 02:00:09;;;;;;;2.85;2.40;;;;;;;18.65;100.00;100250.84;6151891;28;20048;-89
2022/06/26 02:03:15;;;;;;;2.92;2.60;;;;;;;18.64;100.00;100247.41;6122909;28;20523;-89
2022/06/26 02:06:19;;;;;;;2.58;2.38;;;;;;;18.64;100.00;100250.03;6139283;28;20055;-88
2022/06/26 02:16:06;;;;;;;2.50;2.30;;;;;;;18.61;100.00;100246.97;6137723;29;20417;-88
2022/06/26 02:19:09;;;;;;;2.97;2.65;;;;;;;18.60;100.00;100240.91;6139348;28;20047;-89
2022/06/26 02:22:11;;;;;;;3.30;3.00;;;;;;;18.55;100.00;100243.25;6136437;28;20102;-89
2022/06/26 02:25:13;;;;;;;4.00;2.70;;;;;;;18.50;100.00;100246.41;6139020;29;20047;-88
2022/06/26 02:28:21;;;;;;;3.00;2.58;;;;;;;18.47;100.00;100248.59;6136154;28;20047;-88
2022/06/26 02:31:25;;;;;;;3.63;2.80;;;;;;;18.42;100.00;100249.13;6133447;28;20042;-89
2022/06/26 02:34:27;;;;;;;3.80;2.70;;;;;;;18.30;100.00;100253.97;6138917;29;20639;-89
2022/06/26 02:37:29;;;;;;;3.28;2.60;;;;;;;18.34;100.00;100251.03;6131570;28;20109;-89
2022/06/26 02:40:32;;;;;;;2.80;2.55;;;;;;;18.32;100.00;100248.56;6134093;28;20051;-88
2022/06/26 02:43:34;;;;;;;2.60;2.40;;;;;;;18.26;100.00;100254.50;6132038;29;20545;-89
2022/06/26 02:46:43;;;;;;;5.55;2.60;;;;;;;18.18;100.00;100244.91;6131480;28;20044;-89
2022/06/26 02:49:46;;;;;;;2.85;2.63;;;;;;;18.14;100.00;100248.91;6137152;29;20047;-89
2022/06/26 02:52:48;;;;;;;3.33;2.55;;;;;;;18.13;100.00;100246.44;6137433;28;20058;-88
2022/06/26 02:55:50;;;;;;;3.45;2.70;;;;;;;18.11;100.00;100251.88;6139278;29;20059;-89
2022/06/26 02:58:54;;;;;;;3.53;2.53;;;;;;;18.10;100.00;100250.25;6138562;29;20075;-88
2022/06/26 03:01:58;;;;;;;3.30;2.50;;;;;;;18.06;100.00;100255.03;6135196;28;20043;-88
2022/06/26 03:05:18;;;;;;;3.80;2.38;;;;;;;18.02;100.00;100253.75;6139231;29;20043;-89
2022/06/26 03:08:20;;;;;;;2.85;2.55;;;;;;;18.04;100.00;100256.19;6131811;28;20118;-88
2022/06/26 03:11:22;;;;;;;4.50;2.70;;;;;;;18.04;100.00;100253.56;6139865;28;20519;-88
2022/06/26 03:14:24;;;;;;;3.05;2.70;;;;;;;18.02;100.00;100250.31;6137985;28;20046;-88
2022/06/26 03:17:27;;;;;;;2.83;2.50;;;;;;;18.01;100.00;100251.28;6137621;29;20186;-88
2022/06/26 03:20:30;;;;;;;3.78;2.53;;;;;;;18.01;100.00;100249.50;6126208;29;20204;-88
2022/06/26 03:26:56;;;;;;;3.85;2.67;;;;;;;18.06;100.00;100252.41;6132182;29;20078;-88
2022/06/26 03:29:58;;;;;;;3.08;2.53;;;;;;;18.06;100.00;100252.41;6119848;29;20047;-88
2022/06/26 03:33:00;;;;;;;3.80;2.63;;;;;;;18.08;100.00;100265.31;6132226;29;20552;-88
2022/06/26 03:36:12;;;;;;;2.85;2.55;;;;;;;18.07;100.00;100261.88;6137342;29;20094;-88
2022/06/26 03:39:14;;;;;;;3.72;2.83;;;;;;;18.07;100.00;100267.13;6134883;28;20064;-88
2022/06/26 03:42:16;;;;;;;2.83;2.50;;;;;;;18.07;100.00;100269.75;6135269;29;20046;-88
2022/06/26 03:45:18;;;;;;;2.70;2.50;;;;;;;18.03;100.00;100271.06;6137018;28;20043;-88
2022/06/26 03:48:20;;;;;;;6.20;2.40;;;;;;;18.02;100.00;100269.47;6137912;29;20058;-88
2022/06/26 03:51:22;;;;;;;4.65;3.05;;;;;;;18.02;100.00;100281.75;6130520;28;20769;-88
2022/06/26 03:54:25;;;;;;;3.60;3.10;;;;;;;18.00;100.00;100283.72;6132809;28;20059;-88
2022/06/26 03:57:27;;;;;;;4.00;2.88;;;;;;;17.98;100.00;100291.75;6136538;29;20057;-88
2022/06/26 04:00:31;;;;;;;4.05;2.90;;;;;;;17.96;100.00;100288.50;6134876;28;20035;-88
2022/06/26 04:03:34;;;;;;;2.95;2.67;;;;;;;17.96;100.00;100285.06;6135547;28;20138;-89
2022/06/26 04:06:37;;;;;;;2.75;2.50;;;;;;;17.97;100.00;100286.69;6136554;29;20576;-88
2022/06/26 04:09:50;;;;;;;4.53;2.88;;;;;;;18.02;100.00;100289.59;6136943;29;20065;-88
2022/06/26 04:12:59;;;;;;;2.92;2.65;;;;;;;18.03;100.00;100293.84;6120191;29;20051;-88
2022/06/26 04:16:02;;;;;;;4.30;2.80;;;;;;;18.08;100.00;100286.28;6136289;29;20058;-88
2022/06/26 04:19:04;;;;;;;3.22;2.90;;;;;;;18.16;100.00;100285.38;6134327;28;20055;-88
2022/06/26 04:22:07;;;;;;;3.22;2.90;;;;;;;18.21;100.00;100281.28;6118528;29;20040;-89
2022/06/26 04:25:11;;;;;;;4.07;3.17;;;;;;;18.25;100.00;100279.09;6131103;28;20136;-88
2022/06/26 04:28:14;;;;;;;5.82;3.10;;;;;;;18.29;100.00;100280.38;6136377;28;20075;-89
2022/06/26 04:31:19;;;;;;;2.80;2.60;;;;;;;18.33;100.00;100281.63;6130423;29;20505;-89
2022/06/26 04:34:26;;;;;;;3.28;2.80;;;;;;;18.41;100.00;100280.75;6136410;28;20054;-88
2022/06/26 04:37:29;;;;;;;7.25;3.63;;;;;;;18.44;100.00;100277.78;6134014;29;20047;-88
2022/06/26 04:40:31;;;;;;;3.70;2.90;;;;;;;18.48;100.00;100274.63;6136806;29;20043;-88
2022/06/26 04:43:33;;;;;;;3.63;2.88;;;;;;;18.51;100.00;100281.31;6135571;29;20179;-89
2022/06/26 04:46:38;;;;;;;4.05;2.90;;;;;;;18.55;100.00;100285.19;6135406;29;20051;-88
2022/06/26 04:49:40;;;;;;;3.47;2.95;;;;;;;18.61;100.00;100286.31;6128216;29;20050;-88
2022/06/26 04:52:47;;;;;;;2.95;2.70;;;;;;;18.70;100.00;100287.84;6137308;28;20047;-89
2022/06/26 04:55:50;;;;;;;3.33;3.03;;;;;;;18.80;100.00;100287.59;6127034;29;20051;-88
2022/06/26 04:58:53;;;;;;;3.42;2.67;;;;;;;18.88;100.00;100293.59;6136400;28;20074;-88
2022/06/26 05:01:58;;;;;;;3.13;2.83;;;;;;;18.94;100.00;100297.28;6134900;29;20146;-89
2022/06/26 05:05:16;;;;;;;3.30;3.00;;;;;;;18.96;100.00;100304.97;6123576;29;20142;-89
2022/06/26 05:08:26;;;;;;;3.10;2.80;;;;;;;18.97;100.00;100310.03;6124000;29;20039;-88
2022/06/26 05:11:28;;;;;;;3.33;3.03;;;;;;;19.02;100.00;100310.28;6141017;29;20390;-88
2022/06/26 05:14:30;;;;;;;2.70;2.50;;;;;;;19.09;100.00;100305.94;6137717;29;20051;-88
2022/06/26 05:17:48;;;;;;;5.43;2.60;;;;;;;19.19;100.00;100313.53;6136577;29;20059;-88
2022/06/26 05:20:52;;;;;;;3.05;2.85;;;;;;;19.26;100.00;100314.44;6137459;28;20524;-88
2022/06/26 05:23:55;;;;;;;4.10;2.80;;;;;;;19.32;100.00;100323.38;6134492;28;20090;-89
2022/06/26 05:26:58;;;;;;;4.40;3.15;;;;;;;19.38;100.00;100338.41;6136505;29;20399;-88
2022/06/26 05:30:04;;;;;;;3.33;3.03;;;;;;;19.48;100.00;100341.56;6134293;29;20109;-89
2022/06/26 05:33:13;;;;;;;3.63;2.90;;;;;;;19.58;100.00;100339.47;6148789;28;20051;-89
2022/06/26 05:36:15;;;;;;;3.08;2.75;;;;;;;19.63;100.00;100341.53;6127993;29;20048;-88
2022/06/26 05:39:17;;;;;;;3.38;2.85;;;;;;;19.68;100.00;100333.13;6135434;29;20121;-89
2022/06/26 05:42:20;;;;;;;2.80;2.55;;;;;;;19.74;100.00;100342.88;6139037;28;20047;-88
2022/06/26 05:45:22;;;;;;;2.97;2.78;;;;;;;19.86;100.00;100345.84;6132537;29;20073;-88
2022/06/26 05:48:50;;;;;;;3.80;3.05;;;;;;;19.97;100.00;100343.56;6129557;29;20055;-89
2022/06/26 05:52:13;;;;;;;3.20;2.90;;;;;;;20.11;100.00;100356.81;6130934;28;20058;-89
2022/06/26 05:55:27;;;;;;;3.53;3.15;;;;;;;20.23;100.00;100357.94;6121047;28;20394;-88
2022/06/26 05:58:40;;;;;;;3.70;3.30;;;;;;;20.31;100.00;100342.03;6121883;28;20059;-89
2022/06/26 06:02:13;;;;;;;5.15;3.75;;;;;;;20.41;100.00;100350.41;6116300;28;20087;-89
2022/06/26 06:05:15;;;;;;;2.90;2.58;;;;;;;20.51;100.00;100350.06;6134381;28;20043;-89
2022/06/26 06:08:17;;;;;;;2.83;2.63;;;;;;;20.65;100.00;100343.13;6111194;28;20186;-89
2022/06/26 06:11:19;;;;;;;3.22;2.92;;;;;;;20.79;100.00;100357.97;6131192;28;20122;-89
2022/06/26 06:14:22;;;;;;;3.00;2.80;;;;;;;20.90;100.00;100361.91;6116142;28;20054;-90
2022/06/26 06:20:45;;;;;;;3.28;2.97;;;;;;;21.18;100.00;100364.50;6108199;28;20083;-89
2022/06/26 06:24:08;;;;;;;3.35;2.53;;;;;;;21.42;100.00;100362.44;6129671;28;20150;-89
2022/06/26 06:27:10;;;;;;;2.85;2.65;;;;;;;21.66;98.80;100366.34;6123488;28;20045;-89
2022/06/26 06:30:13;;;;;;;2.70;2.50;;;;;;;21.92;96.41;100370.91;6138864;28;20398;-89
2022/06/26 06:33:16;;;;;;;3.15;2.58;;;;;;;22.23;93.96;100377.44;6136549;29;20569;-89
2022/06/26 06:36:19;;;;;;;5.00;2.60;;;;;;;22.57;90.86;100376.47;6132535;28;20055;-89
2022/06/26 06:39:21;;;;;;;2.65;2.45;;;;;;;22.98;84.77;100396.53;6135754;29;20043;-89
2022/06/26 06:42:26;;;;;;;6.57;2.70;;;;;;;23.35;81.00;100402.13;6138618;29;20039;-89
2022/06/26 06:45:28;;;;;;;2.80;2.60;;;;;;;23.51;77.21;100403.50;6138511;28;20420;-89
2022/06/26 06:48:36;;;;;;;3.60;2.50;;;;;;;23.60;78.75;100403.06;6134683;28;20054;-89
2022/06/26 06:51:58;;;;;;;4.80;2.70;;;;;;;23.70;77.18;100402.63;6138641;29;20062;-89
2022/06/26 06:55:01;;;;;;;3.38;2.15;;;;;;;23.71;78.69;100400.78;6131893;29;20054;-89
2022/06/26 06:58:04;;;;;;;2.40;2.20;;;;;;;23.68;77.34;100404.66;6118431;29;20043;-89
2022/06/26 07:01:08;;;;;;;2.65;2.35;;;;;;;23.59;79.00;100401.44;6134954;28;20101;-89
2022/06/26 07:04:10;;;;;;;3.40;2.42;;;;;;;23.48;79.40;100410.03;6134568;28;20051;-89
2022/06/26 07:07:12;;;;;;;3.10;2.67;;;;;;;23.42;81.40;100416.94;6143027;28;20052;-89
2022/06/26 07:10:14;;;;;;;2.78;2.50;;;;;;;23.30;82.79;100423.06;6132508;29;20071;-89
2022/06/26 07:13:16;;;;;;;2.40;2.20;;;;;;;23.19;82.97;100419.25;6125673;29;20047;-88
2022/06/26 07:16:19;;;;;;;2.55;2.35;;;;;;;23.23;80.70;100425.75;6137665;29;20173;-89
2022/06/26 07:19:20;;;;;;;3.15;2.67;;;;;;;23.22;77.71;100435.47;6136526;28;20043;-89
2022/06/26 07:22:22;;;;;;;3.45;2.38;;;;;;;23.22;79.32;100437.31;6125821;29;20634;-88
2022/06/26 07:25:32;;;;;;;3.97;2.47;;;;;;;23.26;77.09;100430.63;6123514;28;20051;-89
2022/06/26 07:28:37;;;;;;;2.67;2.47;;;;;;;23.19;76.68;100440.38;6135536;28;20044;-89
2022/06/26 07:31:40;;;;;;;2.90;2.20;;;;;;;23.05;76.45;100433.50;6135349;29;20051;-88
2022/06/26 07:34:46;;;;;;;3.47;2.40;;;;;;;22.99;76.97;100440.41;6137900;29;20382;-89
2022/06/26 07:37:48;;;;;;;3.80;2.55;;;;;;;22.96;76.52;100446.88;6136913;29;20098;-90
2022/06/26 07:40:51;;;;;;;2.40;2.20;;;;;;;22.87;76.62;100440.19;6121514;29;20142;-89
2022/06/26 07:43:55;;;;;;;2.58;2.38;;;;;;;23.04;75.68;100439.81;6124509;29;20479;-89
2022/06/26 07:46:58;;;;;;;2.72;2.40;;;;;;;23.25;74.16;100441.38;6119891;29;20516;-89
2022/06/26 07:50:18;;;;;;;4.40;2.75;;;;;;;23.38;74.49;100439.53;6140649;28;20043;-89
2022/06/26 07:53:21;;;;;;;5.63;3.00;;;;;;;23.49;75.29;100442.53;6129450;29;20413;-88
2022/06/26 07:56:25;;;;;;;3.47;3.15;;;;;;;23.65;75.59;100442.06;6127122;29;20039;-90
2022/06/26 07:59:27;;;;;;;3.33;3.03;;;;;;;23.88;75.86;100454.81;6125758;28;20047;-90
2022/06/26 08:02:29;;;;;;;4.82;3.60;;;;;;;23.90;76.87;100450.13;6127150;29;20046;-90
2022/06/26 08:05:31;;;;;;;4.30;3.85;;;;;;;23.86;77.27;100451.56;6124020;29;20122;-89
2022/06/26 08:08:32;;;;;;;5.03;3.97;;;;;;;23.79;75.96;100458.72;6121905;28;20528;-90
2022/06/26 08:11:34;;;;;;;5.38;3.80;;;;;;;23.64;79.19;100454.47;6129591;29;20039;-90
2022/06/26 08:14:36;;;;;;;4.70;4.30;;;;;;;23.46;79.73;100466.75;6127278;28;20074;-89
2022/06/26 08:17:38;;;;;;;4.95;4.40;;;;;;;23.36;80.09;100462.69;6123456;28;20052;-90
2022/06/26 08:20:40;;;;;;;4.55;4.18;;;;;;;23.35;81.75;100460.25;6129547;29;20082;-89
2022/06/26 08:23:42;;;;;;;5.60;4.22;;;;;;;23.52;79.69;100453.50;6132036;28;20047;-89
2022/06/26 08:26:44;;;;;;;4.43;3.97;;;;;;;23.59;79.58;100458.75;6124017;28;20054;-90
2022/06/26 08:29:46;;;;;;;5.15;3.40;;;;;;;23.57;79.51;100460.78;6129838;28;20195;-89
2022/06/26 08:32:48;;;;;;;5.18;3.97;;;;;;;23.55;79.35;100462.84;6129185;29;20051;-89
2022/06/26 08:35:50;;;;;;;5.78;4.00;;;;;;;23.59;78.58;100461.41;6124605;29;20047;-89
2022/06/26 08:38:52;;;;;;;3.92;3.63;;;;;;;23.57;79.16;100463.44;6122672;28;20046;-89
2022/06/26 08:41:54;;;;;;;5.93;3.80;;;;;;;23.61;80.27;100467.31;6131913;29;20046;-89
2022/06/26 08:44:58;;;;;;;5.05;3.58;;;;;;;23.69;79.31;100469.69;6131947;29;20073;-89
2022/06/26 08:48:02;;;;;;;3.85;3.50;;;;;;;23.96;76.97;100480.22;6126982;28;20048;-89
2022/06/26 08:51:05;;;;;;;6.40;3.55;;;;;;;24.15;75.05;100481.94;6122377;28;20047;-89
2022/06/26 08:54:14;;;;;;;3.60;3.30;;;;;;;24.26;75.26;100469.88;6126895;28;20051;-89
2022/06/26 08:57:16;;;;;;;5.00;3.80;;;;;;;24.56;73.49;100482.53;6126191;29;20047;-89
2022/06/26 09:00:18;;;;;;;3.42;3.10;;;;;;;24.86;71.71;100485.34;6127144;28;20165;-90
2022/06/26 09:03:20;;;;;;;3.20;3.00;;;;;;;25.22;70.15;100479.38;6132283;29;20066;-89
2022/06/26 09:06:22;;;;;;;3.80;3.10;;;;;;;25.74;66.88;100482.47;6123143;29;20513;-86
2022/06/26 09:09:27;;;;;;;3.90;3.35;;;;;;;26.34;64.57;100479.06;6128742;28;20412;-86
2022/06/26 09:12:36;;;;;;;4.07;3.05;;;;;;;26.87;61.88;100489.91;6130974;28;20067;-86
2022/06/26 09:15:40;;;;;;;3.63;3.33;;;;;;;27.13;60.67;100489.47;6128715;28;20047;-86
2022/06/26 09:18:43;;;;;;;4.57;3.53;;;;;;;27.26;59.75;100494.56;6125063;28;20571;-87
2022/06/26 09:21:52;;;;;;;3.00;2.80;;;;;;;27.38;59.50;100496.41;6130251;29;20118;-85
2022/06/26 09:24:56;;;;;;;3.30;2.97;;;;;;;27.62;58.46;100503.28;6127222;29;20042;-86
2022/06/26 09:28:05;;;;;;;3.55;2.70;;;;;;;28.00;58.46;100498.47;6124702;29;20547;-87
2022/06/26 09:31:07;;;;;;;3.20;2.75;;;;;;;28.31;56.48;100508.66;6128740;29;20478;-86
2022/06/26 09:34:26;;;;;;;3.30;3.00;;;;;;;28.45;53.82;100501.22;6128777;29;20043;-86
2022/06/26 09:37:35;;;;;;;2.92;2.63;;;;;;;28.42;52.92;100511.47;6131933;28;20036;-86
2022/06/26 09:41:05;;;;;;;3.57;2.23;;;;;;;28.24;53.69;100515.16;6131763;29;20642;-86
2022/06/26 09:44:17;;;;;;;3.38;2.67;;;;;;;27.78;54.53;100527.56;6122131;29;20292;-85
2022/06/26 09:47:28;;;;;;;3.08;2.58;;;;;;;27.36;54.87;100520.56;6127308;29;20627;-85
2022/06/26 09:50:31;;;;;;;4.40;2.90;;;;;;;27.00;58.12;100518.91;6117226;29;20044;-88
2022/06/26 09:53:33;;;;;;;2.88;2.58;;;;;;;26.76;58.92;100513.59;6132770;28;20090;-86
2022/06/26 09:56:35;;;;;;;3.03;2.83;;;;;;;26.38;60.61;100528.00;6130345;29;20503;-86
2022/06/26 09:59:39;;;;;;;2.78;2.58;;;;;;;26.22;61.79;100523.31;6126895;29;20051;-86
2022/06/26 10:09:27;;;;;;;3.63;3.17;;;;;;;27.17;60.29;100535.78;6116851;29;20851;-87
2022/06/26 10:12:30;;;;;;;3.58;3.30;;;;;;;27.55;56.02;100533.72;6129817;29;20098;-87
2022/06/26 10:15:41;;;;;;;2.75;2.55;;;;;;;27.18;58.63;100529.50;6127545;28;20138;-87
2022/06/26 10:19:11;;;;;;;4.07;2.88;;;;;;;27.06;59.98;100536.59;6125366;29;20047;-86
2022/06/26 10:22:13;;;;;;;3.58;3.28;;;;;;;27.10;61.14;100543.06;6127059;29;20521;-87
2022/06/26 10:25:24;;;;;;;4.65;3.08;;;;;;;27.41;59.73;100536.63;6128872;29;20114;-87
2022/06/26 10:28:25;;;;;;;;;;;;;;;27.71;58.24;100541.78;6129106;29;20040;-86
2022/06/26 10:31:48;;;;;;;3.25;3.00;;;;;;;28.03;55.56;100546.72;6123341;28;19927;-85
2022/06/26 10:34:58;;;;;;;3.53;3.33;;;;;;;28.12;55.74;100550.63;6131922;29;20098;-86
2022/06/26 10:38:18;;;;;;;4.28;3.88;;;;;;;28.06;54.02;100540.94;6131344;29;20049;-86
2022/06/26 10:44:55;;;;;;;4.70;3.33;;;;;;;27.90;55.84;100554.97;6122669;29;20035;-88
2022/06/26 10:48:03;;;;;;;3.95;3.55;;;;;;;27.82;56.97;100553.47;6127429;29;20051;-85
2022/06/26 10:51:05;;;;;;;3.60;3.30;;;;;;;28.00;56.80;100549.03;6126428;28;20051;-86
2022/06/26 10:54:23;;;;;;;4.50;3.50;;;;;;;28.04;53.83;100542.22;6128342;29;20168;-87
2022/06/26 10:57:38;;;;;;;4.50;3.53;;;;;;;28.26;54.43;100547.69;6135315;29;20039;-88
2022/06/26 11:00:40;;;;;;;3.70;3.30;;;;;;;28.17;53.69;100539.25;6133998;29;20448;-86
2022/06/26 11:03:44;;;;;;;4.07;3.67;;;;;;;28.27;55.19;100533.31;6131855;28;20051;-87
2022/06/26 11:06:46;;;;;;;4.20;3.53;;;;;;;28.67;55.14;100537.78;6136195;29;20101;-88
2022/06/26 11:09:48;;;;;;;3.72;3.42;;;;;;;29.26;51.41;100538.19;6135057;29;20047;-88
2022/06/26 11:12:52;;;;;;;5.47;3.42;;;;;;;29.44;49.59;100542.47;6131229;28;20055;-88
2022/06/26 11:15:54;;;;;;;5.05;3.50;;;;;;;29.32;50.29;100542.56;6130450;28;20039;-86
2022/06/26 11:18:56;;;;;;;6.05;3.42;;;;;;;29.21;51.41;100548.78;6123203;29;20036;-86
2022/06/26 11:22:09;;;;;;;4.05;3.25;;;;;;;29.03;50.83;100549.81;6124806;29;20067;-86
2022/06/26 11:25:11;;;;;;;3.05;2.85;;;;;;;28.95;50.87;100559.03;6127887;29;20074;-87
2022/06/26 11:28:14;;;;;;;3.70;3.40;;;;;;;28.99;51.97;100560.19;6141749;28;20047;-87
2022/06/26 11:31:26;;;;;;;3.70;2.92;;;;;;;28.91;52.09;100557.09;6126141;29;20051;-88
2022/06/26 11:34:28;;;;;;;5.05;3.40;;;;;;;28.73;50.79;100568.78;6134803;28;20046;-87
2022/06/26 11:37:37;;;;;;;3.50;3.20;;;;;;;28.62;52.45;100572.31;6128808;28;20054;-85
2022/06/26 11:40:43;;;;;;;4.25;3.10;;;;;;;28.47;52.16;100573.69;6124617;29;20099;-85
2022/06/26 11:43:47;;;;;;;3.50;2.90;;;;;;;28.16;52.20;100569.59;6132694;29;20036;-88
2022/06/26 11:46:49;;;;;;;3.40;3.10;;;;;;;27.91;53.98;100572.56;6124621;29;20843;-86
2022/06/26 11:49:51;;;;;;;3.20;2.90;;;;;;;27.90;54.17;100568.25;6129513;28;20043;-87
2022/06/26 11:52:55;;;;;;;4.75;3.05;;;;;;;27.96;54.55;100567.34;6129809;29;20058;-87
2022/06/26 11:55:59;;;;;;;4.35;3.08;;;;;;;28.23;53.38;100575.59;6132121;28;20715;-88
2022/06/26 11:59:01;;;;;;;3.30;3.05;;;;;;;28.52;52.19;100573.78;6121571;29;20043;-89
2022/06/26 12:02:03;;;;;;;3.05;2.78;;;;;;;28.70;52.02;100563.94;6123344;29;20050;-88
2022/06/26 12:05:06;;;;;;;3.13;2.85;;;;;;;28.84;50.31;100573.22;6115937;29;20044;-88
2022/06/26 12:08:20;;;;;;;3.20;2.92;;;;;;;29.09;49.43;100569.38;6124914;29;20043;-89
2022/06/26 12:11:24;;;;;;;2.85;2.60;;;;;;;29.12;50.79;100579.59;6127378;29;20877;-89
2022/06/26 12:14:27;;;;;;;2.95;2.65;;;;;;;29.57;48.91;100575.97;6126504;28;20053;-87
2022/06/26 12:17:30;;;;;;;2.90;2.70;;;;;;;29.89;48.77;100594.00;6141488;28;20130;-87
2022/06/26 12:20:41;;;;;;;3.13;2.60;;;;;;;29.45;48.12;100581.41;6119047;29;20035;-88
2022/06/26 12:23:44;;;;;;;2.88;2.47;;;;;;;29.13;50.00;100581.19;6118416;29;20055;-86
2022/06/26 12:26:46;;;;;;;2.97;2.78;;;;;;;28.95;49.99;100574.22;6126430;29;20179;-87
2022/06/26 12:29:48;;;;;;;3.95;2.63;;;;;;;28.75;50.94;100574.69;6125167;29;20054;-89
2022/06/26 12:32:50;;;;;;;2.83;2.30;;;;;;;28.74;49.55;100576.53;6128771;29;20043;-89
2022/06/26 12:35:52;;;;;;;3.75;2.70;;;;;;;28.49;50.26;100574.22;6120388;28;20106;-86
2022/06/26 12:38:55;;;;;;;2.60;2.40;;;;;;;28.53;51.81;100570.03;6130545;29;20420;-86
2022/06/26 12:41:56;;;;;;;2.22;2.13;;;;;;;28.66;50.48;100565.47;6126028;29;20753;-87
2022/06/26 12:44:59;;;;;;;2.70;2.50;;;;;;;28.46;51.97;100571.25;6125628;28;20754;-87
2022/06/26 12:48:01;;;;;;;2.92;2.60;;;;;;;28.45;51.53;100573.09;6127449;29;20047;-87
2022/06/26 12:51:03;;;;;;;2.90;2.50;;;;;;;28.76;50.69;100577.09;6130311;28;20062;-86
2022/06/26 12:54:05;;;;;;;3.03;2.40;;;;;;;29.09;49.94;100575.56;6138835;28;20047;-88
2022/06/26 12:57:07;;;;;;;2.55;2.35;;;;;;;29.71;47.83;100571.91;6129602;29;20047;-88
2022/06/26 13:00:09;;;;;;;2.58;2.15;;;;;;;29.79;47.19;100568.81;6135738;28;20054;-89
2022/06/26 13:03:11;;;;;;;3.05;2.10;;;;;;;29.98;47.45;100574.63;6126352;28;20054;-88
2022/06/26 13:06:13;;;;;;;2.03;1.92;;;;;;;30.29;45.29;100574.22;6130436;28;20491;-88
2022/06/26 13:09:15;;;;;;;2.05;1.95;;;;;;;30.24;45.37;100580.28;6131486;28;20031;-87
2022/06/26 13:12:17;;;;;;;2.63;2.10;;;;;;;29.97;45.64;100578.38;6125001;28;20039;-86
2022/06/26 13:15:19;;;;;;;2.50;2.00;;;;;;;29.89;48.02;100572.66;6116257;29;20120;-88
2022/06/26 13:18:21;;;;;;;2.53;2.10;;;;;;;30.00;44.71;100574.41;6119496;28;20039;-88
2022/06/26 13:21:23;;;;;;;3.03;1.95;;;;;;;29.97;45.70;100573.03;6123005;28;21132;-87
2022/06/26 13:24:24;;;;;;;1.70;1.60;;;;;;;30.53;43.75;100556.00;6125246;28;20040;-89
2022/06/26 13:27:26;;;;;;;1.80;1.70;;;;;;;31.00;43.22;100556.16;6131362;28;20046;-89
2022/06/26 13:30:28;;;;;;;1.90;1.80;;;;;;;31.21;40.95;100543.75;6128393;29;20058;-89
2022/06/26 13:33:31;;;;;;;1.70;1.60;;;;;;;31.00;41.98;100561.50;6124530;29;20058;-87
2022/06/26 13:36:33;;;;;;;1.73;1.63;;;;;;;30.63;43.90;100551.59;6124323;28;20039;-88
2022/06/26 13:39:35;;;;;;;1.70;1.60;;;;;;;30.45;43.49;100560.75;6129169;28;20043;-89
2022/06/26 13:42:37;;;;;;;2.22;1.45;;;;;;;31.07;43.37;100564.78;6131046;29;20070;-90
2022/06/26 13:45:39;;;;;;;3.75;1.67;;;;;;;31.76;42.79;100552.34;6126683;28;20516;-89
2022/06/26 13:48:41;;;;;;;4.70;2.50;;;;;;;32.01;43.12;100550.88;6119542;28;20122;-89
2022/06/26 13:51:43;;;;;;;1.70;1.60;;;;;;;32.07;40.26;100555.16;6126538;29;20580;-90
2022/06/26 13:54:45;;;;;;;1.80;1.70;;;;;;;31.82;40.86;100563.88;6123430;29;20067;-90
2022/06/26 13:57:47;;;;;;;1.95;1.70;;;;;;;31.57;41.88;100565.38;6121723;29;20055;-89
2022/06/26 14:00:49;;;;;;;1.60;1.50;;;;;;;31.49;41.15;100571.22;6130131;29;20042;-90
2022/06/26 14:03:52;;;;;;;2.97;2.08;;;;;;;31.41;40.92;100566.38;6125114;28;20040;-90
2022/06/26 14:06:55;;;;;;;1.88;1.77;;;;;;;31.30;41.96;100563.59;6124159;28;20185;-90
2022/06/26 14:09:56;;;;;;;2.30;1.90;;;;;;;31.15;42.89;100566.16;6123773;29;20039;-88
2022/06/26 14:12:58;;;;;;;1.98;1.83;;;;;;;30.56;43.05;100568.84;6124823;29;20040;-89
2022/06/26 14:16:00;;;;;;;2.13;1.48;;;;;;;29.87;45.13;100580.94;6127890;29;20050;-89
2022/06/26 14:19:02;;;;;;;1.88;1.77;;;;;;;29.41;44.89;100573.06;6129685;29;20146;-89
2022/06/26 14:28:49;;;;;;;1.77;1.65;;;;;;;30.50;43.79;100577.91;6128370;29;20043;-89
2022/06/26 14:31:51;;;;;;;1.73;1.63;;;;;;;30.56;43.18;100576.88;6127428;29;20047;-89
2022/06/26 14:35:08;;;;;;;1.48;1.38;;;;;;;30.27;43.76;100583.28;6125496;28;20464;-88
2022/06/26 14:38:10;;;;;;;2.05;1.92;;;;;;;30.35;44.15;100584.69;6120385;29;20043;-89
2022/06/26 14:41:12;;;;;;;2.10;1.90;;;;;;;31.06;43.71;100584.56;6136202;28;20148;-90
2022/06/26 14:44:15;;;;;;;3.17;1.50;;;;;;;32.03;42.88;100580.88;6128060;29;20054;-89